Grand Lake, Colorado
Current Conditions -  °F | °C
As of 6:10 AM on Tuesday 21 Oct 2014 (Local Time) from K0CO Reporting Station
Clear Clear  
Wind Chill: 27°   Ceiling: Unl
Heat Index: 32°   Visibility: 10mi
Dew Point: 30°   Wind: 5mph
Humidity: 93%   Direction: 270°W
Pressure: 30.43"   Gusts: NA
Location:  40.25°N, 105.82°W
Report Text: K0CO 211210Z AUTO 27004KT 10SM CLR 00/M01 A3043 RMK AO2
Loading
Personal Weather Stations






























Interactive Weather Map New forecast layout! Learn more

10-Day Weather Forecast

Advertisements
Track Severe Weather on mobile